createdAt,value
2018-11-25T00:01:46.263Z,44.95
2018-11-25T00:04:14.752Z,52.10
2018-11-25T00:06:43.285Z,50.27
2018-11-25T00:09:12.103Z,44.70
2018-11-25T00:11:40.934Z,45.80
2018-11-25T00:14:09.498Z,54.70
2018-11-25T00:16:37.685Z,54.47
2018-11-25T00:19:06.184Z,50.35
2018-11-25T00:21:34.923Z,50.60
2018-11-25T00:24:03.877Z,54.00
2018-11-25T00:26:32.349Z,54.00
2018-11-25T00:29:00.815Z,50.17
2018-11-25T00:31:29.641Z,60.43
2018-11-25T00:33:57.842Z,83.60
2018-11-25T00:36:26.372Z,52.87
2018-11-25T00:38:54.939Z,57.27
2018-11-25T00:41:23.838Z,56.88
2018-11-25T00:43:52.432Z,56.08
2018-11-25T00:46:21.406Z,58.48
2018-11-25T00:48:50.742Z,54.77
2018-11-25T00:51:19.023Z,58.10
2018-11-25T00:53:47.657Z,52.58
2018-11-25T00:56:15.849Z,59.40
2018-11-25T00:58:44.056Z,53.78
2018-11-25T01:01:12.350Z,59.05
2018-11-25T01:03:41.287Z,58.42
2018-11-25T01:06:10.161Z,54.38
2018-11-25T01:08:38.401Z,59.60
2018-11-25T01:11:06.901Z,58.95
2018-11-25T01:13:35.506Z,57.15
2018-11-25T01:16:03.973Z,58.98
2018-11-25T01:18:32.228Z,59.55
2018-11-25T01:21:01.060Z,52.80
2018-11-25T01:23:29.339Z,55.40
2018-11-25T01:25:57.572Z,55.40
2018-11-25T01:28:25.832Z,55.35
2018-11-25T01:30:54.058Z,55.38
2018-11-25T01:33:22.357Z,60.58
2018-11-25T01:35:51.222Z,60.63
2018-11-25T01:38:19.841Z,54.63
2018-11-25T01:40:48.403Z,60.83
2018-11-25T01:43:16.880Z,52.55
2018-11-25T01:45:45.113Z,62.90
2018-11-25T01:48:13.712Z,55.17
2018-11-25T01:50:42.912Z,59.85
2018-11-25T01:53:11.113Z,51.77
2018-11-25T01:55:40.126Z,55.08
2018-11-25T01:58:08.997Z,67.05
2018-11-25T02:00:37.572Z,55.48
2018-11-25T02:03:06.475Z,59.50
2018-11-25T02:05:34.727Z,63.13
2018-11-25T02:08:02.926Z,70.65
2018-11-25T02:10:31.175Z,55.63
2018-11-25T02:12:59.694Z,64.47
2018-11-25T02:15:27.893Z,56.70
2018-11-25T02:17:56.594Z,62.00
2018-11-25T02:20:25.051Z,66.28
2018-11-25T02:23:13.233Z,66.77
2018-11-25T02:25:41.838Z,69.55
2018-11-25T02:28:10.359Z,68.10
2018-11-25T02:30:38.992Z,64.05
2018-11-25T02:33:07.603Z,63.90
2018-11-25T02:35:36.104Z,65.97
2018-11-25T02:38:04.767Z,64.37
2018-11-25T02:40:33.265Z,70.67
2018-11-25T02:43:01.792Z,65.62
2018-11-25T02:45:30.325Z,66.35
2018-11-25T02:47:59.345Z,65.15
2018-11-25T02:50:28.484Z,71.42
2018-11-25T02:53:16.349Z,66.45
2018-11-25T02:55:45.037Z,67.22
2018-11-25T02:58:13.268Z,70.12
2018-11-25T03:00:41.478Z,60.40
2018-11-25T03:03:09.679Z,70.52
2018-11-25T03:05:37.877Z,65.03
2018-11-25T03:08:06.151Z,59.58
2018-11-25T03:10:34.352Z,67.82
2018-11-25T03:13:02.925Z,70.87
2018-11-25T03:15:32.189Z,73.17
2018-11-25T03:18:01.203Z,67.12
2018-11-25T03:20:30.639Z,64.55
2018-11-25T03:22:59.520Z,66.22
2018-11-25T03:25:28.032Z,68.75
2018-11-25T03:27:56.522Z,83.92
2018-11-25T03:30:24.750Z,78.25
2018-11-25T03:32:53.896Z,67.30
2018-11-25T03:35:22.459Z,67.82
2018-11-25T03:37:50.711Z,71.60
2018-11-25T03:40:19.434Z,68.57
2018-11-25T03:42:48.285Z,69.70
2018-11-25T03:45:35.901Z,73.12
2018-11-25T03:48:05.157Z,74.42
2018-11-25T03:50:52.815Z,67.30
2018-11-25T03:53:21.022Z,71.97
2018-11-25T03:55:49.972Z,73.95
2018-11-25T03:58:18.223Z,70.20
2018-11-25T04:00:46.438Z,75.87
2018-11-25T04:03:15.657Z,64.72
2018-11-25T04:05:43.936Z,64.35
2018-11-25T04:08:12.475Z,68.83
2018-11-25T04:10:41.036Z,68.02
2018-11-25T04:13:09.692Z,70.08
2018-11-25T04:15:37.940Z,72.55
2018-11-25T04:18:06.136Z,71.07
2018-11-25T04:20:34.827Z,68.95
2018-11-25T04:23:04.023Z,70.40
2018-11-25T04:25:32.221Z,72.20
2018-11-25T04:28:01.310Z,74.07
2018-11-25T04:30:29.949Z,70.17
2018-11-25T04:32:58.202Z,71.62
2018-11-25T04:35:26.746Z,73.35
2018-11-25T04:37:55.260Z,69.42
2018-11-25T04:40:23.501Z,69.65
2018-11-25T04:42:52.393Z,82.95
2018-11-25T04:45:20.906Z,72.67
2018-11-25T04:47:50.137Z,67.45
2018-11-25T04:50:22.153Z,71.77
2018-11-25T04:52:51.423Z,66.17
2018-11-25T04:55:20.668Z,74.25
2018-11-25T04:58:08.002Z,71.33
2018-11-25T05:00:36.193Z,64.70
2018-11-25T05:03:04.409Z,60.98
2018-11-25T05:05:32.627Z,74.77
2018-11-25T05:08:01.152Z,66.40
2018-11-25T05:10:29.732Z,71.67
2018-11-25T05:12:57.965Z,80.05
2018-11-25T05:15:26.180Z,81.12
2018-11-25T05:17:54.667Z,68.47
2018-11-25T05:20:23.170Z,88.17
2018-11-25T05:22:51.880Z,73.28
2018-11-25T05:25:20.367Z,75.47
2018-11-25T05:27:48.580Z,62.78
2018-11-25T05:30:36.464Z,66.67
2018-11-25T05:33:05.332Z,71.25
2018-11-25T05:35:33.621Z,69.17
2018-11-25T05:38:02.284Z,68.67
2018-11-25T05:40:31.163Z,72.97
2018-11-25T05:42:59.795Z,72.67
2018-11-25T05:45:28.968Z,76.07
2018-11-25T05:47:57.475Z,68.60
2018-11-25T05:50:25.710Z,77.47
2018-11-25T05:52:54.246Z,74.35
2018-11-25T05:55:22.470Z,75.80
2018-11-25T05:57:50.703Z,68.67
2018-11-25T06:00:39.101Z,74.82
2018-11-25T06:03:26.697Z,78.45
2018-11-25T06:05:55.525Z,75.70
2018-11-25T06:08:23.729Z,70.45
2018-11-25T06:10:52.539Z,71.82
2018-11-25T06:13:21.153Z,76.67
2018-11-25T06:15:49.878Z,71.15
2018-11-25T06:18:18.743Z,81.67
2018-11-25T06:20:47.856Z,74.00
2018-11-25T06:23:16.694Z,68.12
2018-11-25T06:25:45.630Z,72.60
2018-11-25T06:28:14.207Z,78.50
2018-11-25T06:30:43.080Z,72.70
2018-11-25T06:33:11.561Z,77.32
2018-11-25T06:35:40.097Z,82.33
2018-11-25T06:38:08.355Z,76.20
2018-11-25T06:40:36.831Z,69.05
2018-11-25T06:43:05.618Z,82.17
2018-11-25T06:45:34.535Z,79.35
2018-11-25T06:48:22.455Z,75.03
2018-11-25T06:50:50.696Z,83.67
2018-11-25T06:53:19.250Z,83.97
2018-11-25T06:55:47.782Z,85.17
2018-11-25T06:58:16.390Z,84.15
2018-11-25T07:00:44.905Z,90.85
2018-11-25T07:03:13.428Z,86.30
2018-11-25T07:05:41.686Z,86.72
2018-11-25T07:08:10.161Z,78.83
2018-11-25T07:10:38.411Z,79.97
2018-11-25T07:13:07.351Z,77.78
2018-11-25T07:15:35.575Z,83.87
2018-11-25T07:18:03.923Z,84.95
2018-11-25T07:20:32.474Z,101.55
2018-11-25T07:23:00.709Z,86.82
2018-11-25T07:25:28.910Z,89.62
2018-11-25T07:27:57.397Z,84.67
2018-11-25T07:30:29.018Z,91.12
2018-11-25T07:32:57.675Z,91.32
2018-11-25T07:35:45.828Z,84.97
2018-11-25T07:38:33.435Z,95.80
2018-11-25T07:41:01.655Z,87.30
2018-11-25T07:43:30.113Z,79.30
2018-11-25T07:45:58.337Z,85.45
2018-11-25T07:48:26.573Z,87.70
2018-11-25T07:50:55.096Z,83.87
2018-11-25T07:53:24.224Z,76.62
2018-11-25T07:55:53.021Z,84.07
2018-11-25T07:58:21.541Z,84.22
2018-11-25T08:00:50.099Z,86.53
2018-11-25T08:03:18.299Z,76.97
2018-11-25T08:05:46.515Z,88.80
2018-11-25T08:08:14.762Z,87.78
2018-11-25T08:10:43.297Z,83.95
2018-11-25T08:13:11.852Z,93.70
2018-11-25T08:15:40.363Z,96.95
2018-11-25T08:18:08.852Z,83.50
2018-11-25T08:20:37.444Z,80.32
2018-11-25T08:23:05.737Z,91.05
2018-11-25T08:25:34.648Z,85.30
2018-11-25T08:28:03.162Z,83.67
2018-11-25T08:30:31.362Z,86.97
2018-11-25T08:33:00.232Z,81.53
2018-11-25T08:35:28.696Z,85.00
2018-11-25T08:37:56.900Z,92.37
2018-11-25T08:40:25.499Z,83.75
2018-11-25T08:42:53.912Z,85.17
2018-11-25T08:45:22.062Z,87.45
2018-11-25T08:47:50.642Z,88.35
2018-11-25T08:50:19.601Z,79.95
2018-11-25T08:52:51.890Z,81.30
2018-11-25T08:55:24.150Z,81.75
2018-11-25T08:57:52.961Z,84.72
2018-11-25T09:00:41.169Z,81.85
2018-11-25T09:03:09.412Z,78.20
2018-11-25T09:05:37.614Z,71.25
2018-11-25T09:08:05.813Z,87.60
2018-11-25T09:10:34.830Z,80.12
2018-11-25T09:13:03.032Z,71.45
2018-11-25T09:15:31.552Z,72.65
2018-11-25T09:18:00.030Z,85.07
2018-11-25T09:20:28.614Z,84.80
2018-11-25T09:22:57.101Z,79.15
2018-11-25T09:25:45.003Z,75.05
2018-11-25T09:28:13.825Z,77.78
2018-11-25T09:30:42.365Z,82.25
2018-11-25T09:33:10.916Z,80.32
2018-11-25T09:35:39.116Z,68.78
2018-11-25T09:38:07.344Z,69.55
2018-11-25T09:40:36.144Z,67.75
2018-11-25T09:43:04.502Z,63.98
2018-11-25T09:45:33.731Z,78.12
2018-11-25T09:48:01.997Z,70.37
2018-11-25T09:50:31.099Z,69.00
2018-11-25T09:53:00.600Z,78.90
2018-11-25T09:55:29.203Z,83.37
2018-11-25T09:58:00.956Z,67.90
2018-11-25T10:00:33.009Z,73.00
2018-11-25T10:03:01.445Z,71.10
2018-11-25T10:05:29.643Z,69.30
2018-11-25T10:07:58.160Z,63.38
2018-11-25T10:10:26.763Z,73.40
2018-11-25T10:12:54.966Z,72.05
2018-11-25T10:15:43.090Z,63.65
2018-11-25T10:18:12.005Z,67.70
2018-11-25T10:20:41.164Z,65.50
2018-11-25T10:23:09.406Z,70.52
2018-11-25T10:25:38.643Z,72.60
2018-11-25T10:28:06.891Z,70.77
2018-11-25T10:30:35.520Z,65.80
2018-11-25T10:33:06.346Z,59.67
2018-11-25T10:35:34.538Z,52.50
2018-11-25T10:38:02.784Z,51.87
2018-11-25T10:40:31.293Z,53.50
2018-11-25T10:42:59.478Z,58.93
2018-11-25T10:45:28.426Z,50.93
2018-11-25T10:47:57.382Z,54.20
2018-11-25T10:50:26.235Z,56.00
2018-11-25T10:52:54.435Z,50.03
2018-11-25T10:55:23.231Z,53.70
2018-11-25T10:57:52.691Z,54.47
2018-11-25T11:00:59.639Z,55.73
2018-11-25T11:03:46.949Z,48.07
2018-11-25T11:06:34.231Z,46.77
2018-11-25T11:09:03.041Z,50.70
2018-11-25T11:11:31.564Z,52.20
2018-11-25T11:14:00.508Z,50.27
2018-11-25T11:16:28.692Z,47.40
2018-11-25T11:18:57.479Z,53.40
2018-11-25T11:21:26.595Z,58.63
2018-11-25T11:23:54.310Z,52.93
2018-11-25T11:26:42.767Z,48.67
2018-11-25T11:29:11.296Z,47.60
2018-11-25T11:31:40.227Z,53.87
2018-11-25T11:34:08.430Z,51.03
2018-11-25T11:36:36.664Z,61.30
2018-11-25T11:39:07.341Z,50.30
2018-11-25T11:41:36.245Z,49.07
2018-11-25T11:44:05.302Z,47.97
2018-11-25T11:46:34.222Z,46.90
2018-11-25T11:49:02.739Z,52.90
2018-11-25T11:51:31.324Z,49.97
2018-11-25T11:53:59.509Z,50.57
2018-11-25T11:56:28.094Z,46.63
2018-11-25T11:58:56.284Z,52.20
2018-11-25T12:01:24.528Z,47.13
2018-11-25T12:03:53.425Z,50.73
2018-11-25T12:06:22.479Z,43.07
2018-11-25T12:08:50.961Z,47.07
2018-11-25T12:11:39.092Z,46.97
2018-11-25T12:14:08.291Z,46.27
2018-11-25T12:16:36.474Z,44.40
2018-11-25T12:19:24.379Z,46.60
2018-11-25T12:21:58.066Z,45.67
2018-11-25T12:24:21.743Z,49.73
2018-11-25T12:26:49.958Z,42.80
2018-11-25T12:29:18.197Z,46.90
2018-11-25T12:31:46.775Z,57.50
2018-11-25T12:34:15.417Z,44.67
2018-11-25T12:36:43.918Z,46.50
2018-11-25T12:39:12.857Z,80.37
2018-11-25T12:41:41.437Z,46.47
2018-11-25T12:44:09.659Z,51.60
2018-11-25T12:46:38.792Z,44.57
2018-11-25T12:49:07.340Z,43.90
2018-11-25T12:51:36.572Z,43.47
2018-11-25T12:54:05.578Z,39.73
2018-11-25T12:56:33.841Z,45.23
2018-11-25T12:59:03.039Z,39.57
2018-11-25T13:01:31.844Z,45.40
2018-11-25T13:04:00.775Z,39.27
2018-11-25T13:06:48.891Z,38.70
2018-11-25T13:09:17.436Z,39.17
2018-11-25T13:12:05.163Z,34.03
2018-11-25T13:14:34.326Z,34.47
2018-11-25T13:17:02.518Z,37.43
2018-11-25T13:19:31.420Z,33.30
2018-11-25T13:22:00.287Z,30.93
2018-11-25T13:24:29.218Z,32.27
2018-11-25T13:26:58.651Z,34.83
2018-11-25T13:29:27.206Z,35.93
2018-11-25T13:31:55.690Z,34.90
2018-11-25T13:34:24.208Z,32.00
2018-11-25T13:36:53.061Z,37.83
2018-11-25T13:39:21.533Z,34.03
2018-11-25T13:41:50.367Z,35.07
2018-11-25T13:44:18.612Z,32.70
2018-11-25T13:46:47.122Z,34.43
2018-11-25T13:49:15.951Z,32.90
2018-11-25T13:51:44.183Z,32.73
2018-11-25T13:54:12.370Z,29.30
2018-11-25T13:56:40.589Z,30.00
2018-11-25T13:59:09.099Z,25.57
2018-11-25T14:01:37.603Z,23.13
2018-11-25T14:04:06.338Z,29.27
2018-11-25T14:06:35.027Z,24.90
2018-11-25T14:09:03.691Z,23.10
2018-11-25T14:11:32.955Z,27.40
2018-11-25T14:14:00.398Z,22.33
2018-11-25T14:16:28.614Z,22.20
2018-11-25T14:18:56.795Z,20.80
2018-11-25T14:21:25.401Z,19.30
2018-11-25T14:23:53.978Z,18.67
2018-11-25T14:26:24.658Z,18.90
2018-11-25T14:28:53.289Z,22.30
2018-11-25T14:31:21.480Z,20.67
2018-11-25T14:33:50.462Z,25.03
2018-11-25T14:36:18.681Z,21.00
2018-11-25T14:38:46.905Z,26.37
2018-11-25T14:41:15.487Z,32.73
2018-11-25T14:43:44.053Z,35.17
2018-11-25T14:46:12.610Z,33.43
2018-11-25T14:48:41.133Z,33.70
2018-11-25T14:51:29.038Z,29.90
2018-11-25T14:53:58.118Z,33.73
2018-11-25T14:56:26.611Z,29.13
2018-11-25T14:58:55.836Z,33.53
2018-11-25T15:01:44.958Z,29.67
2018-11-25T15:04:36.307Z,32.10
2018-11-25T15:07:01.049Z,32.17
2018-11-25T15:09:29.229Z,38.80
2018-11-25T15:11:57.804Z,29.80
2018-11-25T15:14:26.336Z,25.27
2018-11-25T15:16:55.620Z,30.57
2018-11-25T15:19:43.227Z,32.40
2018-11-25T15:22:11.733Z,29.20
2018-11-25T15:24:40.725Z,34.00
2018-11-25T15:27:08.972Z,34.40
2018-11-25T15:29:37.859Z,38.87
2018-11-25T15:32:06.369Z,35.40
2018-11-25T15:34:35.259Z,37.00
2018-11-25T15:37:03.695Z,39.23
2018-11-25T15:39:32.232Z,42.73
2018-11-25T15:42:01.010Z,42.85
2018-11-25T15:44:29.208Z,40.50
2018-11-25T15:46:58.761Z,49.33
2018-11-25T15:49:27.004Z,42.25
2018-11-25T15:51:55.526Z,41.50
2018-11-25T15:54:24.100Z,48.75
2018-11-25T15:56:52.320Z,46.45
2018-11-25T15:59:21.147Z,44.63
2018-11-25T16:01:49.749Z,45.05
2018-11-25T16:04:17.945Z,47.05
2018-11-25T16:06:46.547Z,52.05
2018-11-25T16:09:15.398Z,50.98
2018-11-25T16:11:43.898Z,52.13
2018-11-25T16:14:12.104Z,51.50
2018-11-25T16:16:40.326Z,50.90
2018-11-25T16:19:08.854Z,56.95
2018-11-25T16:21:37.067Z,50.25
2018-11-25T16:24:05.772Z,52.53
2018-11-25T16:26:35.627Z,49.95
2018-11-25T16:29:08.181Z,55.43
2018-11-25T16:31:36.411Z,53.40
2018-11-25T16:34:04.642Z,55.83
2018-11-25T16:36:32.840Z,57.48
2018-11-25T16:39:01.987Z,54.67
2018-11-25T16:41:30.180Z,50.85
2018-11-25T16:43:58.435Z,71.67
2018-11-25T16:46:46.317Z,53.87
2018-11-25T16:49:15.624Z,49.35
2018-11-25T16:51:43.844Z,47.80
2018-11-25T16:54:12.077Z,57.90
2018-11-25T16:56:40.797Z,49.18
2018-11-25T16:59:09.714Z,56.33
2018-11-25T17:01:38.183Z,56.33
2018-11-25T17:04:06.416Z,56.80
2018-11-25T17:06:35.544Z,56.83
2018-11-25T17:09:04.101Z,49.58
2018-11-25T17:11:32.801Z,56.13
2018-11-25T17:14:01.758Z,53.28
2018-11-25T17:16:30.395Z,51.25
2018-11-25T17:18:58.996Z,57.88
2018-11-25T17:21:27.622Z,57.45
2018-11-25T17:23:56.301Z,59.70
2018-11-25T17:26:24.569Z,56.88
2018-11-25T17:29:12.785Z,60.48
2018-11-25T17:31:40.992Z,60.38
2018-11-25T17:34:09.611Z,61.40
2018-11-25T17:36:38.927Z,60.80
2018-11-25T17:41:36.345Z,61.77
2018-11-25T17:44:04.572Z,54.83
2018-11-25T17:46:33.144Z,56.63
2018-11-25T17:49:02.086Z,60.23
2018-11-25T17:51:30.320Z,55.60
2018-11-25T17:54:18.734Z,53.33
2018-11-25T17:56:47.608Z,68.02
2018-11-25T17:59:16.560Z,57.83
2018-11-25T18:01:45.483Z,65.62
2018-11-25T18:04:13.722Z,56.98
2018-11-25T18:06:42.432Z,56.23
2018-11-25T18:09:11.339Z,56.10
2018-11-25T18:11:39.564Z,56.35
2018-11-25T18:14:08.685Z,60.85
2018-11-25T18:16:37.011Z,56.60
2018-11-25T18:19:35.343Z,58.95
2018-11-25T18:22:13.135Z,55.65
2018-11-25T18:24:42.044Z,54.48
2018-11-25T18:27:10.277Z,57.10
2018-11-25T18:29:39.222Z,59.20
2018-11-25T18:32:07.452Z,57.17
2018-11-25T18:34:36.023Z,63.78
2018-11-25T18:37:04.271Z,68.10
2018-11-25T18:39:32.838Z,64.67
2018-11-25T18:42:01.423Z,61.83
2018-11-25T18:44:30.088Z,58.25
2018-11-25T18:46:58.640Z,64.82
2018-11-25T18:49:26.837Z,61.48
2018-11-25T18:51:55.372Z,55.85
2018-11-25T18:54:23.948Z,57.90
2018-11-25T18:56:52.791Z,62.08
2018-11-25T18:59:21.681Z,60.25
2018-11-25T19:02:12.005Z,60.30
2018-11-25T19:04:40.282Z,57.67
2018-11-25T19:07:09.168Z,67.30
2018-11-25T19:09:37.406Z,66.42
2018-11-25T19:12:05.723Z,59.98
2018-11-25T19:14:35.063Z,62.62
2018-11-25T19:17:22.992Z,60.67
2018-11-25T19:19:51.576Z,66.50
2018-11-25T19:22:19.793Z,66.25
2018-11-25T19:24:48.406Z,66.95
2018-11-25T19:27:17.394Z,66.10
2018-11-25T19:29:46.295Z,64.55
2018-11-25T19:32:15.144Z,62.55
2018-11-25T19:34:44.092Z,70.35
2018-11-25T19:37:12.324Z,63.45
2018-11-25T19:39:40.610Z,65.20
2018-11-25T19:42:09.518Z,57.45
2018-11-25T19:44:37.762Z,59.08
2018-11-25T19:47:06.842Z,62.65
2018-11-25T19:49:35.671Z,67.35
2018-11-25T19:52:04.227Z,67.75
2018-11-25T19:54:33.310Z,69.32
2018-11-25T19:57:02.384Z,66.35
2018-11-25T19:59:30.700Z,64.85
2018-11-25T20:02:18.351Z,65.30
2018-11-25T20:04:47.095Z,56.42
2018-11-25T20:07:15.478Z,55.50
2018-11-25T20:09:43.799Z,53.95
2018-11-25T20:12:12.844Z,51.40
2018-11-25T20:14:42.175Z,59.20
2018-11-25T20:17:29.798Z,58.25
2018-11-25T20:19:58.253Z,52.13
2018-11-25T20:22:27.173Z,55.50
2018-11-25T20:24:56.136Z,60.05
2018-11-25T20:27:43.806Z,66.85
2018-11-25T20:30:16.363Z,53.23
2018-11-25T20:33:03.863Z,63.38
2018-11-25T20:35:32.575Z,61.53
2018-11-25T20:38:19.877Z,61.05
2018-11-25T20:40:48.490Z,59.93
2018-11-25T20:43:16.782Z,68.95
2018-11-25T20:46:04.113Z,60.25
2018-11-25T20:48:32.766Z,70.52
2018-11-25T20:51:01.517Z,66.42
2018-11-25T20:53:48.865Z,58.48
2018-11-25T20:56:17.472Z,56.30
2018-11-25T20:58:45.688Z,64.07
2018-11-25T21:01:14.441Z,62.73
2018-11-25T21:03:42.653Z,62.65
2018-11-25T21:06:10.865Z,70.05
2018-11-25T21:08:39.139Z,62.78
2018-11-25T21:11:07.377Z,72.75
2018-11-25T21:13:36.185Z,61.75
2018-11-25T21:16:04.389Z,61.90
2018-11-25T21:18:32.629Z,61.40
2018-11-25T21:21:01.180Z,59.03
2018-11-25T21:23:30.123Z,57.33
2018-11-25T21:25:59.061Z,59.80
2018-11-25T21:28:47.439Z,54.67
2018-11-25T21:31:16.710Z,68.05
2018-11-25T21:33:45.399Z,66.40
2018-11-25T21:36:13.639Z,65.42
2018-11-25T21:38:42.510Z,69.95
2018-11-25T21:41:11.080Z,69.85
2018-11-25T21:43:39.599Z,65.22
2018-11-25T21:46:07.845Z,69.25
2018-11-25T21:48:36.444Z,63.90
2018-11-25T21:51:04.722Z,64.42
2018-11-25T21:53:33.418Z,59.42
2018-11-25T21:56:02.361Z,65.78
2018-11-25T21:58:30.637Z,69.70
2018-11-25T22:00:59.431Z,56.35
2018-11-25T22:03:27.935Z,61.65
2018-11-25T22:05:56.597Z,79.92
2018-11-25T22:08:25.115Z,60.38
2018-11-25T22:10:53.697Z,69.22
2018-11-25T22:13:22.289Z,69.07
2018-11-25T22:15:50.822Z,70.40
2018-11-25T22:18:20.042Z,68.85
2018-11-25T22:20:48.709Z,61.35
2018-11-25T22:23:17.542Z,67.37
2018-11-25T22:25:46.531Z,72.12
2018-11-25T22:28:15.851Z,61.00
2018-11-25T22:30:44.559Z,59.77
2018-11-25T22:33:13.404Z,72.25
2018-11-25T22:35:41.965Z,60.83
2018-11-25T22:38:10.484Z,57.27
2018-11-25T22:40:39.056Z,52.75
2018-11-25T22:43:07.663Z,60.10
2018-11-25T22:45:36.229Z,55.23
2018-11-25T22:48:04.446Z,70.17
2018-11-25T22:50:33.545Z,63.55
2018-11-25T22:53:02.397Z,56.95
2018-11-25T22:55:30.939Z,64.05
2018-11-25T22:57:59.948Z,63.45
2018-11-25T23:00:32.750Z,58.40
2018-11-25T23:03:01.009Z,65.05
2018-11-25T23:06:08.040Z,68.67
2018-11-25T23:08:36.626Z,70.65
2018-11-25T23:11:05.367Z,70.15
2018-11-25T23:13:34.801Z,65.45
2018-11-25T23:16:04.605Z,71.22
2018-11-25T23:18:32.824Z,69.47
2018-11-25T23:21:02.355Z,67.58
2018-11-25T23:23:30.628Z,74.45
2018-11-25T23:25:59.641Z,67.90
2018-11-25T23:28:28.545Z,70.10
2018-11-25T23:30:57.103Z,75.70
2018-11-25T23:33:25.614Z,64.75
2018-11-25T23:35:54.323Z,65.57
2018-11-25T23:38:23.152Z,68.60
2018-11-25T23:40:51.741Z,71.28
2018-11-25T23:43:20.352Z,75.65
2018-11-25T23:45:49.113Z,67.20
2018-11-25T23:48:17.992Z,83.62
2018-11-25T23:50:46.543Z,82.45
2018-11-25T23:53:15.450Z,74.15
2018-11-25T23:55:44.259Z,72.70
2018-11-25T23:58:19.880Z,71.07
